createdAt,value
2023-01-04T00:00:43.242Z,99.77
2023-01-04T00:03:44.935Z,100.00
2023-01-04T00:06:48.094Z,100.00
2023-01-04T00:09:49.768Z,99.73
2023-01-04T00:12:51.276Z,99.78
2023-01-04T00:15:52.899Z,99.71
2023-01-04T00:18:55.201Z,99.67
2023-01-04T00:21:58.429Z,99.68
2023-01-04T00:25:00.043Z,99.53
2023-01-04T00:28:01.642Z,99.89
2023-01-04T00:31:04.399Z,99.47
2023-01-04T00:34:06.918Z,100.00
2023-01-04T00:37:10.038Z,100.00
2023-01-04T00:40:12.188Z,100.00
2023-01-04T00:43:13.815Z,99.83
2023-01-04T00:46:15.592Z,99.24
2023-01-04T00:49:17.157Z,99.43
2023-01-04T00:52:20.058Z,99.26
2023-01-04T00:55:21.760Z,99.26
2023-01-04T00:58:23.361Z,99.20
2023-01-04T01:01:25.233Z,99.16
2023-01-04T01:04:27.029Z,99.34
2023-01-04T01:07:30.196Z,99.43
2023-01-04T01:10:34.264Z,99.43
2023-01-04T01:13:36.468Z,99.27
2023-01-04T01:16:54.428Z,99.68
2023-01-04T01:19:57.396Z,100.00
2023-01-04T01:23:00.319Z,100.00
2023-01-04T01:26:02.483Z,99.66
2023-01-04T01:29:04.190Z,99.92
2023-01-04T01:32:06.080Z,99.78
2023-01-04T01:35:07.898Z,100.00
2023-01-04T01:38:10.939Z,100.00
2023-01-04T01:41:17.358Z,99.68
2023-01-04T01:44:37.904Z,99.95
2023-01-04T01:47:41.888Z,99.59
2023-01-04T01:50:47.157Z,99.94
2023-01-04T01:53:54.842Z,99.91
2023-01-04T01:56:58.171Z,99.72
2023-01-04T02:00:02.264Z,99.56
2023-01-04T02:03:18.459Z,99.22
2023-01-04T02:06:24.080Z,99.64
2023-01-04T02:09:27.238Z,99.20
2023-01-04T02:12:29.383Z,98.88
2023-01-04T02:15:35.849Z,98.54
2023-01-04T02:18:40.511Z,98.96
2023-01-04T02:21:47.816Z,98.73
2023-01-04T02:25:03.009Z,98.91
2023-01-04T02:28:09.780Z,98.85
2023-01-04T02:31:25.272Z,99.23
2023-01-04T02:34:32.319Z,99.16
2023-01-04T02:37:38.688Z,99.50
2023-01-04T02:40:44.168Z,99.50
2023-01-04T02:44:08.947Z,98.99
2023-01-04T02:47:14.328Z,98.97
2023-01-04T02:50:33.604Z,98.50
2023-01-04T02:53:36.648Z,98.25
2023-01-04T02:56:45.823Z,98.34
2023-01-04T03:00:08.416Z,98.39
2023-01-04T03:03:36.113Z,99.14
2023-01-04T03:06:41.112Z,99.86
2023-01-04T03:09:45.775Z,100.00
2023-01-04T03:12:50.705Z,100.00
2023-01-04T03:15:54.085Z,100.00
2023-01-04T03:18:58.497Z,100.00
2023-01-04T03:22:00.428Z,100.00
2023-01-04T03:25:21.765Z,100.00
2023-01-04T03:28:43.618Z,100.00
2023-01-04T03:32:07.099Z,100.00
2023-01-04T03:35:28.100Z,100.00
2023-01-04T03:38:52.514Z,100.00
2023-01-04T03:42:17.512Z,100.00
2023-01-04T03:45:41.261Z,100.00
2023-01-04T03:48:46.239Z,100.00
2023-01-04T03:51:51.060Z,100.00
2023-01-04T03:54:53.941Z,100.00
2023-01-04T03:57:56.441Z,100.00
2023-01-04T04:01:03.947Z,100.00
2023-01-04T04:04:24.460Z,100.00
2023-01-04T04:07:46.186Z,100.00
2023-01-04T04:10:47.829Z,100.00
2023-01-04T04:13:50.015Z,100.00
2023-01-04T04:16:51.850Z,100.00
2023-01-04T04:19:53.459Z,100.00
2023-01-04T04:22:56.457Z,100.00
2023-01-04T04:25:58.104Z,100.00
2023-01-04T04:28:59.830Z,100.00
2023-01-04T04:32:01.529Z,100.00
2023-01-04T04:35:03.409Z,100.00
2023-01-04T04:38:06.626Z,100.00
2023-01-04T04:41:28.438Z,100.00
2023-01-04T04:44:30.140Z,100.00
2023-01-04T04:47:31.681Z,100.00
2023-01-04T04:50:33.246Z,100.00
2023-01-04T04:53:36.211Z,100.00
2023-01-04T04:56:37.868Z,100.00
2023-01-04T04:59:39.557Z,100.00
2023-01-04T05:02:41.368Z,100.00
2023-01-04T05:05:43.072Z,100.00
2023-01-04T05:08:46.378Z,100.00
2023-01-04T05:12:06.829Z,100.00
2023-01-04T05:15:08.779Z,100.00
2023-01-04T05:18:11.312Z,100.00
2023-01-04T05:21:16.886Z,100.00
2023-01-04T05:24:22.838Z,100.00
2023-01-04T05:27:24.391Z,100.00
2023-01-04T05:30:44.623Z,100.00
2023-01-04T05:33:46.234Z,100.00
2023-01-04T05:36:47.868Z,100.00
2023-01-04T05:39:50.743Z,100.00
2023-01-04T05:42:52.490Z,100.00
2023-01-04T05:45:55.716Z,100.00
2023-01-04T05:48:57.558Z,100.00
2023-01-04T05:51:59.191Z,100.00
2023-01-04T05:55:02.102Z,100.00
2023-01-04T05:58:03.796Z,100.00
2023-01-04T06:01:07.701Z,100.00
2023-01-04T06:04:09.463Z,100.00
2023-01-04T06:07:11.398Z,100.00
2023-01-04T06:10:14.701Z,100.00
2023-01-04T06:13:16.195Z,100.00
2023-01-04T06:16:17.835Z,100.00
2023-01-04T06:19:19.436Z,100.00
2023-01-04T06:22:21.193Z,100.00
2023-01-04T06:25:24.114Z,100.00
2023-01-04T06:28:25.790Z,100.00
2023-01-04T06:31:27.537Z,100.00
2023-01-04T06:34:31.449Z,100.00
2023-01-04T06:37:33.236Z,100.00
2023-01-04T06:40:36.262Z,100.00
2023-01-04T06:43:37.804Z,100.00
2023-01-04T06:46:41.333Z,100.00
2023-01-04T06:49:43.010Z,100.00
2023-01-04T06:52:44.681Z,100.00
2023-01-04T06:55:47.751Z,100.00
2023-01-04T06:58:49.317Z,100.00
2023-01-04T07:01:51.013Z,100.00
2023-01-04T07:04:52.718Z,100.00
2023-01-04T07:07:54.408Z,100.00
2023-01-04T07:10:57.548Z,100.00
2023-01-04T07:13:59.295Z,100.00
2023-01-04T07:17:00.833Z,100.00
2023-01-04T07:20:04.043Z,100.00
2023-01-04T07:23:05.893Z,100.00
2023-01-04T07:26:09.165Z,100.00
2023-01-04T07:29:17.161Z,100.00
2023-01-04T07:32:18.930Z,100.00
2023-01-04T07:35:21.029Z,100.00
2023-01-04T07:38:23.506Z,100.00
2023-01-04T07:41:26.525Z,100.00
2023-01-04T07:44:28.507Z,100.00
2023-01-04T07:47:30.171Z,100.00
2023-01-04T07:50:32.143Z,100.00
2023-01-04T07:53:34.080Z,100.00
2023-01-04T07:56:37.231Z,100.00
2023-01-04T07:59:39.001Z,100.00
2023-01-04T08:02:40.644Z,100.00
2023-01-04T08:05:42.563Z,100.00
2023-01-04T08:08:44.699Z,100.00
2023-01-04T08:11:47.736Z,100.00
2023-01-04T08:14:49.697Z,100.00
2023-01-04T08:17:51.358Z,100.00
2023-01-04T08:21:01.383Z,100.00
2023-01-04T08:24:03.117Z,100.00
2023-01-04T08:27:07.922Z,100.00
2023-01-04T08:30:09.948Z,100.00
2023-01-04T08:33:14.849Z,100.00
2023-01-04T08:36:24.242Z,100.00
2023-01-04T08:39:29.699Z,100.00
2023-01-04T08:42:32.626Z,100.00
2023-01-04T08:45:34.255Z,100.00
2023-01-04T08:48:36.177Z,100.00
2023-01-04T08:51:37.880Z,100.00
2023-01-04T08:54:39.409Z,100.00
2023-01-04T08:57:42.363Z,100.00
2023-01-04T09:00:44.101Z,100.00
2023-01-04T09:03:46.179Z,100.00
2023-01-04T09:06:47.908Z,100.00
2023-01-04T09:09:49.483Z,100.00
2023-01-04T09:12:52.428Z,100.00
2023-01-04T09:15:53.995Z,100.00
2023-01-04T09:18:56.334Z,100.00
2023-01-04T09:21:58.526Z,100.00
2023-01-04T09:25:00.308Z,100.00
2023-01-04T09:28:03.368Z,100.00
2023-01-04T09:31:05.731Z,100.00
2023-01-04T09:34:17.070Z,100.00
2023-01-04T09:37:19.201Z,100.00
2023-01-04T09:40:22.999Z,100.00
2023-01-04T09:43:36.413Z,100.00
2023-01-04T09:46:40.905Z,100.00
2023-01-04T09:49:45.314Z,100.00
2023-01-04T09:52:51.765Z,100.00
2023-01-04T09:55:55.978Z,100.00
2023-01-04T09:59:00.325Z,100.00
2023-01-04T10:02:04.268Z,100.00
2023-01-04T10:05:07.013Z,100.00
2023-01-04T10:08:13.943Z,100.00
2023-01-04T10:11:22.476Z,100.00
2023-01-04T10:14:34.815Z,100.00
2023-01-04T10:18:52.022Z,100.00
2023-01-04T10:21:32.063Z,100.00
2023-01-04T10:24:41.554Z,100.00
2023-01-04T10:27:48.337Z,100.00
2023-01-04T10:30:55.048Z,100.00
2023-01-04T10:34:00.002Z,100.00
2023-01-04T10:37:05.164Z,100.00
2023-01-04T10:40:13.172Z,100.00
2023-01-04T10:43:19.237Z,100.00
2023-01-04T10:46:25.400Z,100.00
2023-01-04T10:49:29.683Z,100.00
2023-01-04T10:52:33.337Z,100.00
2023-01-04T10:55:39.393Z,100.00
2023-01-04T10:58:44.144Z,100.00
2023-01-04T11:01:50.746Z,100.00
2023-01-04T11:04:55.495Z,100.00
2023-01-04T11:08:00.120Z,100.00
2023-01-04T11:11:04.392Z,100.00
2023-01-04T11:14:06.224Z,100.00
2023-01-04T11:17:10.472Z,100.00
2023-01-04T11:20:12.260Z,100.00
2023-01-04T11:23:14.735Z,100.00
2023-01-04T11:26:19.147Z,100.00
2023-01-04T11:29:27.179Z,100.00
2023-01-04T11:32:34.417Z,100.00
2023-01-04T11:35:42.177Z,100.00
2023-01-04T11:38:55.095Z,100.00
2023-01-04T11:42:02.578Z,100.00
2023-01-04T11:45:05.647Z,100.00
2023-01-04T11:48:15.089Z,100.00
2023-01-04T11:51:18.852Z,100.00
2023-01-04T11:54:20.532Z,100.00
2023-01-04T11:57:22.142Z,100.00
2023-01-04T12:00:24.131Z,100.00
2023-01-04T12:03:28.455Z,100.00
2023-01-04T12:06:36.607Z,100.00
2023-01-04T12:09:38.198Z,100.00
2023-01-04T12:12:39.861Z,100.00
2023-01-04T12:15:47.173Z,100.00
2023-01-04T12:18:50.451Z,100.00
2023-01-04T12:21:53.711Z,100.00
2023-01-04T12:25:00.549Z,100.00
2023-01-04T12:28:02.684Z,100.00
2023-01-04T12:34:39.655Z,100.00
2023-01-04T12:37:49.290Z,100.00
2023-01-04T12:40:55.268Z,100.00
2023-01-04T12:43:56.786Z,100.00
2023-01-04T12:50:20.325Z,100.00
2023-01-04T12:53:36.736Z,100.00
2023-01-04T12:56:57.101Z,100.00
2023-01-04T13:00:01.478Z,100.00
2023-01-04T13:03:21.810Z,100.00
2023-01-04T13:06:24.035Z,100.00
2023-01-04T13:09:27.164Z,100.00
2023-01-04T13:12:52.989Z,100.00
2023-01-04T13:16:01.755Z,100.00
2023-01-04T13:19:04.256Z,100.00
2023-01-04T13:22:10.431Z,100.00
2023-01-04T13:25:13.508Z,100.00
2023-01-04T13:28:17.320Z,100.00
2023-01-04T13:31:20.714Z,100.00
2023-01-04T13:34:24.423Z,100.00
2023-01-04T13:37:27.762Z,100.00
2023-01-04T13:40:32.620Z,100.00
2023-01-04T13:43:45.295Z,100.00
2023-01-04T13:46:53.734Z,100.00
2023-01-04T13:49:55.514Z,100.00
2023-01-04T13:53:06.779Z,100.00
2023-01-04T13:56:17.216Z,100.00
2023-01-04T13:59:20.498Z,100.00
2023-01-04T14:02:23.733Z,100.00
2023-01-04T14:05:25.426Z,100.00
2023-01-04T14:08:30.562Z,100.00
2023-01-04T14:11:51.827Z,100.00
2023-01-04T14:15:03.870Z,100.00
2023-01-04T14:18:24.041Z,100.00
2023-01-04T14:21:33.658Z,100.00
2023-01-04T14:28:12.740Z,100.00
2023-01-04T14:31:19.936Z,100.00
2023-01-04T14:34:23.023Z,100.00
2023-01-04T14:37:25.010Z,100.00
2023-01-04T14:40:27.490Z,100.00
2023-01-04T14:43:32.428Z,100.00
2023-01-04T14:46:34.280Z,100.00
2023-01-04T14:49:37.339Z,100.00
2023-01-04T14:52:39.082Z,100.00
2023-01-04T14:55:40.634Z,100.00
2023-01-04T14:58:42.842Z,100.00
2023-01-04T15:01:44.805Z,100.00
2023-01-04T15:04:47.862Z,100.00
2023-01-04T15:07:49.657Z,100.00
2023-01-04T15:10:57.902Z,100.00
2023-01-04T15:14:01.648Z,100.00
2023-01-04T15:17:03.236Z,100.00
2023-01-04T15:20:07.077Z,100.00
2023-01-04T15:23:08.984Z,100.00
2023-01-04T15:26:11.710Z,100.00
2023-01-04T15:29:13.423Z,100.00
2023-01-04T15:32:15.053Z,100.00
2023-01-04T15:35:18.132Z,100.00
2023-01-04T15:38:19.745Z,100.00
2023-01-04T15:41:40.107Z,100.00
2023-01-04T15:44:42.832Z,100.00
2023-01-04T15:47:44.334Z,100.00
2023-01-04T15:50:47.289Z,100.00
2023-01-04T15:53:50.127Z,100.00
2023-01-04T15:56:51.789Z,100.00
2023-01-04T15:59:53.554Z,100.00
2023-01-04T16:02:56.505Z,100.00
2023-01-04T16:06:03.513Z,100.00
2023-01-04T16:09:05.617Z,100.00
2023-01-04T16:12:26.267Z,100.00
2023-01-04T16:15:27.939Z,100.00
2023-01-04T16:18:32.480Z,100.00
2023-01-04T16:21:35.724Z,100.00
2023-01-04T16:25:09.458Z,100.00
2023-01-04T16:27:58.766Z,100.00
2023-01-04T16:31:00.732Z,100.00
2023-01-04T16:34:02.510Z,100.00
2023-01-04T16:37:05.584Z,100.00
2023-01-04T16:40:08.989Z,100.00
2023-01-04T16:43:11.058Z,100.00
2023-01-04T16:46:20.707Z,100.00
2023-01-04T16:49:22.327Z,100.00
2023-01-04T16:52:27.364Z,100.00
2023-01-04T16:55:29.096Z,100.00
2023-01-04T16:58:30.840Z,100.00
2023-01-04T17:01:33.415Z,100.00
2023-01-04T17:04:35.256Z,100.00
2023-01-04T17:07:38.221Z,100.00
2023-01-04T17:10:39.835Z,100.00
2023-01-04T17:13:41.484Z,100.00
2023-01-04T17:16:43.993Z,100.00
2023-01-04T17:19:45.673Z,100.00
2023-01-04T17:22:50.081Z,100.00
2023-01-04T17:25:51.719Z,100.00
2023-01-04T17:28:53.319Z,100.00
2023-01-04T17:31:55.076Z,100.00
2023-01-04T17:34:58.207Z,100.00
2023-01-04T17:38:01.299Z,100.00
2023-01-04T17:41:06.505Z,100.00
2023-01-04T17:44:08.174Z,100.00
2023-01-04T17:47:09.781Z,100.00
2023-01-04T17:50:11.356Z,100.00
2023-01-04T17:53:14.439Z,100.00
2023-01-04T17:56:17.577Z,100.00
2023-01-04T17:59:19.250Z,100.00
2023-01-04T18:02:20.885Z,100.00
2023-01-04T18:05:22.583Z,100.00
2023-01-04T18:08:25.496Z,100.00
2023-01-04T18:11:27.499Z,100.00
2023-01-04T18:14:29.200Z,100.00
2023-01-04T18:17:30.855Z,100.00
2023-01-04T18:20:32.435Z,100.00
2023-01-04T18:23:35.461Z,100.00
2023-01-04T18:27:10.831Z,100.00
2023-01-04T18:29:58.690Z,100.00
2023-01-04T18:33:00.372Z,100.00
2023-01-04T18:36:02.338Z,100.00
2023-01-04T18:39:05.302Z,100.00
2023-01-04T18:42:06.970Z,100.00
2023-01-04T18:45:08.999Z,100.00
2023-01-04T18:48:10.569Z,100.00
2023-01-04T18:51:12.912Z,100.00
2023-01-04T18:54:20.984Z,100.00
2023-01-04T18:57:22.506Z,100.00
2023-01-04T19:00:29.977Z,100.00
2023-01-04T19:03:32.804Z,100.00
2023-01-04T19:06:34.491Z,100.00
2023-01-04T19:09:37.612Z,100.00
2023-01-04T19:12:39.258Z,100.00
2023-01-04T19:15:47.392Z,100.00
2023-01-04T19:18:49.311Z,100.00
2023-01-04T19:21:51.074Z,100.00
2023-01-04T19:24:54.080Z,100.00
2023-01-04T19:27:55.845Z,100.00
2023-01-04T19:30:57.652Z,100.00
2023-01-04T19:33:59.261Z,100.00
2023-01-04T19:37:01.009Z,100.00
2023-01-04T19:40:04.562Z,100.00
2023-01-04T19:43:06.565Z,100.00
2023-01-04T19:46:09.088Z,100.00
2023-01-04T19:49:15.130Z,100.00
2023-01-04T19:52:17.264Z,100.00
2023-01-04T19:55:20.272Z,100.00
2023-01-04T19:58:21.943Z,100.00
2023-01-04T20:01:23.913Z,100.00
2023-01-04T20:04:27.978Z,100.00
2023-01-04T20:07:29.604Z,100.00
2023-01-04T20:10:32.642Z,100.00
2023-01-04T20:13:34.270Z,100.00
2023-01-04T20:16:35.960Z,100.00
2023-01-04T20:19:37.581Z,100.00
2023-01-04T20:22:39.080Z,100.00
2023-01-04T20:25:42.746Z,100.00
2023-01-04T20:28:46.035Z,100.00
2023-01-04T20:31:47.749Z,100.00
2023-01-04T20:34:49.447Z,100.00
2023-01-04T20:37:54.579Z,100.00
2023-01-04T20:41:01.395Z,100.00
2023-01-04T20:44:03.411Z,100.00
2023-01-04T20:47:05.249Z,100.00
2023-01-04T20:50:09.434Z,99.33
2023-01-04T20:53:11.627Z,100.00
2023-01-04T20:56:15.822Z,100.00
2023-01-04T20:59:20.107Z,100.00
2023-01-04T21:02:21.900Z,100.00
2023-01-04T21:05:25.658Z,100.00
2023-01-04T21:08:27.253Z,100.00
2023-01-04T21:11:30.321Z,100.00
2023-01-04T21:14:33.479Z,100.00
2023-01-04T21:17:35.033Z,100.00
2023-01-04T21:20:38.787Z,100.00
2023-01-04T21:23:41.024Z,100.00
2023-01-04T21:26:44.079Z,100.00
2023-01-04T21:29:45.662Z,100.00
2023-01-04T21:32:47.457Z,100.00
2023-01-04T21:35:49.012Z,100.00
2023-01-04T21:38:51.103Z,100.00
2023-01-04T21:41:54.264Z,100.00
2023-01-04T21:44:55.747Z,100.00
2023-01-04T21:47:58.111Z,100.00
2023-01-04T21:50:59.734Z,100.00
2023-01-04T21:54:01.825Z,100.00
2023-01-04T21:57:04.893Z,100.00
2023-01-04T22:00:07.102Z,100.00
2023-01-04T22:03:08.933Z,100.00
2023-01-04T22:06:12.431Z,100.00
2023-01-04T22:09:14.012Z,100.00
2023-01-04T22:12:17.037Z,100.00
2023-01-04T22:15:18.589Z,100.00
2023-01-04T22:18:20.267Z,100.00
2023-01-04T22:21:25.218Z,100.00
2023-01-04T22:24:26.846Z,100.00
2023-01-04T22:27:29.942Z,100.00
2023-01-04T22:30:31.727Z,100.00
2023-01-04T22:33:33.506Z,100.00
2023-01-04T22:36:35.110Z,100.00
2023-01-04T22:39:36.774Z,100.00
2023-01-04T22:42:40.063Z,100.00
2023-01-04T22:45:41.599Z,100.00
2023-01-04T22:48:43.378Z,100.00
2023-01-04T22:51:45.323Z,100.00
2023-01-04T22:54:47.328Z,100.00
2023-01-04T22:57:50.391Z,100.00
2023-01-04T23:00:52.098Z,100.00
2023-01-04T23:03:55.188Z,100.00
2023-01-04T23:06:57.027Z,100.00
2023-01-04T23:09:58.660Z,100.00
2023-01-04T23:13:01.675Z,100.00
2023-01-04T23:16:05.343Z,100.00
2023-01-04T23:19:07.433Z,100.00
2023-01-04T23:22:09.173Z,100.00
2023-01-04T23:25:11.247Z,100.00
2023-01-04T23:28:14.128Z,100.00
2023-01-04T23:31:17.495Z,100.00
2023-01-04T23:34:19.093Z,100.00
2023-01-04T23:37:20.786Z,100.00
2023-01-04T23:40:22.355Z,100.00
2023-01-04T23:43:25.321Z,100.00
2023-01-04T23:46:26.837Z,100.00
2023-01-04T23:49:29.669Z,100.00
2023-01-04T23:52:31.200Z,100.00
2023-01-04T23:55:32.759Z,100.00
2023-01-04T23:58:35.692Z,100.00
